createdAt,value
2018-01-26T00:00:44.318Z,1008.87
2018-01-26T00:01:53.488Z,1008.81
2018-01-26T00:03:03.441Z,1008.83
2018-01-26T00:04:13.132Z,1008.79
2018-01-26T00:05:23.078Z,1008.83
2018-01-26T00:06:33.021Z,1008.84
2018-01-26T00:07:42.976Z,1008.82
2018-01-26T00:08:52.931Z,1008.81
2018-01-26T00:10:02.625Z,1008.84
2018-01-26T00:11:12.567Z,1008.8
2018-01-26T00:12:22.502Z,1008.85
2018-01-26T00:13:32.446Z,1008.83
2018-01-26T00:14:42.142Z,1008.83
2018-01-26T00:15:52.087Z,1008.83
2018-01-26T00:17:02.080Z,1008.84
2018-01-26T00:18:11.522Z,1008.84
2018-01-26T00:19:21.469Z,1008.88
2018-01-26T00:20:31.151Z,1008.86
2018-01-26T00:21:41.102Z,1008.85
2018-01-26T00:22:51.044Z,1008.87
2018-01-26T00:24:01.233Z,1008.86
2018-01-26T00:25:11.184Z,1008.9
2018-01-26T00:26:21.122Z,1008.91
2018-01-26T00:27:31.068Z,1008.89
2018-01-26T00:28:41.014Z,1008.93
2018-01-26T00:29:50.703Z,1008.94
2018-01-26T00:31:00.647Z,1008.93
2018-01-26T00:32:10.634Z,1008.96
2018-01-26T00:33:20.568Z,1008.83
2018-01-26T00:34:30.510Z,1008.84
2018-01-26T00:35:40.643Z,1008.89
2018-01-26T00:36:50.592Z,1008.89
2018-01-26T00:38:00.270Z,1008.82
2018-01-26T00:39:09.450Z,1008.85
2018-01-26T00:40:19.146Z,1008.81
2018-01-26T00:41:29.096Z,1008.77
2018-01-26T00:42:38.527Z,1008.75
2018-01-26T00:43:48.468Z,1008.79
2018-01-26T00:44:58.414Z,1008.78
2018-01-26T00:46:08.364Z,1008.76
2018-01-26T00:47:18.319Z,1008.8
2018-01-26T00:48:28.273Z,1008.78
2018-01-26T00:49:38.214Z,1008.83
2018-01-26T00:50:48.157Z,1008.8
2018-01-26T00:51:58.112Z,1008.8
2018-01-26T00:53:08.062Z,1008.8
2018-01-26T00:54:18.012Z,1008.79
2018-01-26T00:55:27.954Z,1008.81
2018-01-26T00:56:37.903Z,1008.79
2018-01-26T00:57:47.881Z,1008.77
2018-01-26T00:58:57.845Z,1008.76
2018-01-26T01:00:08.021Z,1008.77
2018-01-26T01:01:17.964Z,1008.74
2018-01-26T01:02:27.913Z,1008.74
2018-01-26T01:03:37.594Z,1008.73
2018-01-26T01:04:47.281Z,1008.73
2018-01-26T01:05:57.223Z,1008.73
2018-01-26T01:07:06.921Z,1008.7
2018-01-26T01:08:16.946Z,1008.72
2018-01-26T01:09:26.893Z,1008.72
2018-01-26T01:10:36.835Z,1008.7
2018-01-26T01:11:46.774Z,1008.68
2018-01-26T01:12:56.465Z,1008.65
2018-01-26T01:14:06.411Z,1008.6
2018-01-26T01:15:16.358Z,1008.62
2018-01-26T01:16:26.314Z,1008.62
2018-01-26T01:17:36.274Z,1008.64
2018-01-26T01:18:46.001Z,1008.64
2018-01-26T01:19:55.942Z,1008.73
2018-01-26T01:21:05.895Z,1008.7
2018-01-26T01:22:15.338Z,1008.7
2018-01-26T01:23:25.031Z,1008.66
2018-01-26T01:24:34.716Z,1008.65
2018-01-26T01:25:44.405Z,1008.63
2018-01-26T01:26:53.584Z,1008.61
2018-01-26T01:28:03.015Z,1008.59
2018-01-26T01:29:12.957Z,1008.62
2018-01-26T01:30:22.648Z,1008.62
2018-01-26T01:31:32.331Z,1008.58
2018-01-26T01:32:42.027Z,1008.62
2018-01-26T01:33:51.465Z,1008.58
2018-01-26T01:35:00.897Z,1008.54
2018-01-26T01:36:10.613Z,1008.55
2018-01-26T01:37:20.300Z,1008.54
2018-01-26T01:38:30.238Z,1008.58
2018-01-26T01:39:39.930Z,1008.57
2018-01-26T01:40:49.878Z,1008.61
2018-01-26T01:41:59.050Z,1008.6
2018-01-26T01:43:08.744Z,1008.58
2018-01-26T01:44:18.424Z,1008.55
2018-01-26T01:45:28.114Z,1008.53
2018-01-26T01:46:37.797Z,1008.56
2018-01-26T01:47:47.741Z,1008.58
2018-01-26T01:48:57.689Z,1008.52
2018-01-26T01:50:07.648Z,1008.53
2018-01-26T01:51:17.864Z,1008.54
2018-01-26T01:52:27.808Z,1008.52
2018-01-26T01:53:37.516Z,1008.52
2018-01-26T01:54:47.463Z,1008.56
2018-01-26T01:55:57.146Z,1008.52
2018-01-26T01:57:07.102Z,1008.56
2018-01-26T01:58:17.046Z,1008.55
2018-01-26T01:59:26.732Z,1008.56
2018-01-26T02:00:36.678Z,1008.54
2018-01-26T02:01:46.867Z,1008.56
2018-01-26T02:02:56.813Z,1008.53
2018-01-26T02:04:06.765Z,1008.54
2018-01-26T02:05:16.700Z,1008.55
2018-01-26T02:06:26.395Z,1008.55
2018-01-26T02:07:36.094Z,1008.59
2018-01-26T02:08:46.042Z,1008.6
2018-01-26T02:09:55.732Z,1008.59
2018-01-26T02:11:05.680Z,1008.55
2018-01-26T02:12:15.637Z,1008.53
2018-01-26T02:13:25.628Z,1008.53
2018-01-26T02:14:35.564Z,1008.54
2018-01-26T02:15:45.253Z,1008.51
2018-01-26T02:16:54.945Z,1008.5
2018-01-26T02:18:04.903Z,1008.5
2018-01-26T02:19:14.584Z,1008.45
2018-01-26T02:20:24.523Z,1008.49
2018-01-26T02:21:34.474Z,1008.47
2018-01-26T02:22:44.163Z,1008.47
2018-01-26T02:23:54.119Z,1008.49
2018-01-26T02:25:03.558Z,1008.46
2018-01-26T02:26:13.498Z,1008.46
2018-01-26T02:27:23.443Z,1008.45
2018-01-26T02:28:33.381Z,1008.45
2018-01-26T02:29:43.357Z,1008.43
2018-01-26T02:30:53.302Z,1008.42
2018-01-26T02:32:02.984Z,1008.4
2018-01-26T02:33:12.934Z,1008.45
2018-01-26T02:34:22.878Z,1008.42
2018-01-26T02:35:32.844Z,1008.39
2018-01-26T02:36:42.779Z,1008.45
2018-01-26T02:37:52.728Z,1008.46
2018-01-26T02:39:02.425Z,1008.49
2018-01-26T02:40:12.114Z,1008.43
2018-01-26T02:41:22.051Z,1008.4
2018-01-26T02:42:32.016Z,1008.4
2018-01-26T02:43:41.709Z,1008.41
2018-01-26T02:44:51.659Z,1008.41
2018-01-26T02:46:01.605Z,1008.4
2018-01-26T02:47:11.296Z,1008.39
2018-01-26T02:48:20.998Z,1008.43
2018-01-26T02:49:30.690Z,1008.4
2018-01-26T02:50:40.370Z,1008.44
2018-01-26T02:51:50.321Z,1008.46
2018-01-26T02:53:00.271Z,1008.49
2018-01-26T02:54:10.227Z,1008.44
2018-01-26T02:55:20.225Z,1008.48
2018-01-26T02:56:30.222Z,1008.46
2018-01-26T02:57:40.164Z,1008.45
2018-01-26T02:58:49.602Z,1008.36
2018-01-26T02:59:59.550Z,1008.33
2018-01-26T03:01:09.499Z,1008.33
2018-01-26T03:02:19.196Z,1008.31
2018-01-26T03:03:28.903Z,1008.31
2018-01-26T03:04:38.848Z,1008.3
2018-01-26T03:05:48.527Z,1008.29
2018-01-26T03:06:58.471Z,1008.3
2018-01-26T03:08:08.157Z,1008.34
2018-01-26T03:09:17.585Z,1008.32
2018-01-26T03:10:27.259Z,1008.34
2018-01-26T03:11:37.200Z,1008.32
2018-01-26T03:12:47.156Z,1008.29
2018-01-26T03:13:56.840Z,1008.32
2018-01-26T03:15:07.060Z,1008.34
2018-01-26T03:16:16.761Z,1008.4
2018-01-26T03:17:26.715Z,1008.39
2018-01-26T03:18:36.399Z,1008.41
2018-01-26T03:19:45.834Z,1008.39
2018-01-26T03:20:55.784Z,1008.38
2018-01-26T03:22:05.728Z,1008.32
2018-01-26T03:23:15.423Z,1008.36
2018-01-26T03:24:25.352Z,1008.36
2018-01-26T03:25:35.299Z,1008.35
2018-01-26T03:26:45.396Z,1008.29
2018-01-26T03:27:55.388Z,1008.3
2018-01-26T03:29:05.063Z,1008.27
2018-01-26T03:30:14.999Z,1008.31
2018-01-26T03:31:24.975Z,1008.31
2018-01-26T03:32:34.673Z,1008.28
2018-01-26T03:33:44.376Z,1008.28
2018-01-26T03:34:54.059Z,1008.32
2018-01-26T03:36:04.000Z,1008.33
2018-01-26T03:37:13.944Z,1008.27
2018-01-26T03:38:23.892Z,1008.27
2018-01-26T03:39:33.582Z,1008.26
2018-01-26T03:40:43.529Z,1008.26
2018-01-26T03:41:53.488Z,1008.27
2018-01-26T03:43:03.437Z,1008.24
2018-01-26T03:44:13.387Z,1008.21
2018-01-26T03:45:23.322Z,1008.27
2018-01-26T03:46:33.263Z,1008.26
2018-01-26T03:47:43.261Z,1008.27
2018-01-26T03:48:53.219Z,1008.29
2018-01-26T03:50:03.170Z,1008.28
2018-01-26T03:51:12.858Z,1008.32
2018-01-26T03:52:22.808Z,1008.33
2018-01-26T03:53:33.014Z,1008.37
2018-01-26T03:54:42.978Z,1008.35
2018-01-26T03:55:52.667Z,1008.36
2018-01-26T03:57:02.118Z,1008.37
2018-01-26T03:58:12.054Z,1008.4
2018-01-26T03:59:22.004Z,1008.39
2018-01-26T04:00:31.967Z,1008.33
2018-01-26T04:01:41.393Z,1008.36
2018-01-26T04:02:51.077Z,1008.31
2018-01-26T04:04:01.020Z,1008.31
2018-01-26T04:05:10.705Z,1008.32
2018-01-26T04:06:20.389Z,1008.32
2018-01-26T04:07:29.821Z,1008.34
2018-01-26T04:08:39.825Z,1008.32
2018-01-26T04:09:49.760Z,1008.36
2018-01-26T04:10:59.450Z,1008.33
2018-01-26T04:12:08.878Z,1008.35
2018-01-26T04:13:18.815Z,1008.37
2018-01-26T04:14:28.759Z,1008.36
2018-01-26T04:15:38.448Z,1008.37
2018-01-26T04:16:48.393Z,1008.41
2018-01-26T04:17:58.337Z,1008.39
2018-01-26T04:19:08.282Z,1008.42
2018-01-26T04:20:17.710Z,1008.42
2018-01-26T04:21:27.658Z,1008.39
2018-01-26T04:22:37.604Z,1008.41
2018-01-26T04:23:47.295Z,1008.49
2018-01-26T04:24:57.231Z,1008.48
2018-01-26T04:26:06.939Z,1008.5
2018-01-26T04:27:16.889Z,1008.49
2018-01-26T04:28:26.613Z,1008.48
2018-01-26T04:29:36.551Z,1008.53
2018-01-26T04:30:46.739Z,1008.53
2018-01-26T04:31:56.677Z,1008.51
2018-01-26T04:33:06.388Z,1008.5
2018-01-26T04:34:16.129Z,1008.5
2018-01-26T04:35:25.816Z,1008.49
2018-01-26T04:36:35.779Z,1008.48
2018-01-26T04:37:45.472Z,1008.47
2018-01-26T04:38:55.429Z,1008.47
2018-01-26T04:40:04.857Z,1008.44
2018-01-26T04:41:14.803Z,1008.49
2018-01-26T04:42:24.780Z,1008.48
2018-01-26T04:43:34.722Z,1008.52
2018-01-26T04:44:44.667Z,1008.49
2018-01-26T04:45:54.614Z,1008.47
2018-01-26T04:47:04.308Z,1008.5
2018-01-26T04:48:14.256Z,1008.48
2018-01-26T04:49:24.208Z,1008.54
2018-01-26T04:50:34.161Z,1008.51
2018-01-26T04:51:44.104Z,1008.56
2018-01-26T04:52:54.063Z,1008.54
2018-01-26T04:54:04.007Z,1008.52
2018-01-26T04:55:13.942Z,1008.52
2018-01-26T04:56:23.895Z,1008.52
2018-01-26T04:57:33.851Z,1008.56
2018-01-26T04:58:43.338Z,1008.55
2018-01-26T04:59:53.318Z,1008.54
2018-01-26T05:01:03.271Z,1008.54
2018-01-26T05:02:13.212Z,1008.57
2018-01-26T05:03:22.962Z,1008.54
2018-01-26T05:04:32.899Z,1008.55
2018-01-26T05:05:42.902Z,1008.58
2018-01-26T05:06:52.845Z,1008.57
2018-01-26T05:08:02.785Z,1008.62
2018-01-26T05:09:12.478Z,1008.59
2018-01-26T05:10:22.162Z,1008.64
2018-01-26T05:11:32.101Z,1008.62
2018-01-26T05:12:42.051Z,1008.66
2018-01-26T05:13:51.992Z,1008.66
2018-01-26T05:15:01.951Z,1008.64
2018-01-26T05:16:11.895Z,1008.61
2018-01-26T05:17:21.635Z,1008.66
2018-01-26T05:18:31.586Z,1008.7
2018-01-26T05:19:41.275Z,1008.72
2018-01-26T05:20:50.952Z,1008.77
2018-01-26T05:22:00.907Z,1008.71
2018-01-26T05:23:10.848Z,1008.75
2018-01-26T05:24:20.562Z,1008.77
2018-01-26T05:25:30.508Z,1008.81
2018-01-26T05:26:40.439Z,1008.87
2018-01-26T05:27:50.144Z,1008.85
2018-01-26T05:28:59.838Z,1008.84
2018-01-26T05:30:09.902Z,1008.84
2018-01-26T05:31:19.854Z,1008.81
2018-01-26T05:32:29.542Z,1008.79
2018-01-26T05:33:39.225Z,1008.79
2018-01-26T05:34:49.429Z,1008.76
2018-01-26T05:35:59.381Z,1008.77
2018-01-26T05:37:09.313Z,1008.78
2018-01-26T05:38:19.031Z,1008.81
2018-01-26T05:39:28.692Z,1008.81
2018-01-26T05:40:38.647Z,1008.84
2018-01-26T05:41:48.353Z,1008.86
2018-01-26T05:42:58.302Z,1008.87
2018-01-26T05:44:08.237Z,1008.87
2018-01-26T05:45:18.190Z,1008.9
2018-01-26T05:46:28.124Z,1008.9
2018-01-26T05:47:38.074Z,1008.98
2018-01-26T05:48:48.021Z,1008.92
2018-01-26T05:49:58.015Z,1009
2018-01-26T05:51:08.228Z,1008.97
2018-01-26T05:52:18.172Z,1008.99
2018-01-26T05:53:28.129Z,1008.96
2018-01-26T05:54:38.066Z,1008.97
2018-01-26T05:55:48.010Z,1008.98
2018-01-26T05:56:57.715Z,1008.98
2018-01-26T05:58:07.660Z,1008.99
2018-01-26T05:59:17.611Z,1009.01
2018-01-26T06:00:27.578Z,1009.01
2018-01-26T06:01:37.274Z,1009.01
2018-01-26T06:02:46.971Z,1009.06
2018-01-26T06:03:56.917Z,1009.04
2018-01-26T06:05:06.611Z,1009.06
2018-01-26T06:06:16.664Z,1009.08
2018-01-26T06:07:26.672Z,1009.04
2018-01-26T06:08:36.623Z,1009.07
2018-01-26T06:09:46.559Z,1009.1
2018-01-26T06:10:56.521Z,1009.1
2018-01-26T06:12:06.212Z,1009.09
2018-01-26T06:13:16.171Z,1009.07
2018-01-26T06:14:26.105Z,1009.11
2018-01-26T06:15:36.091Z,1009.03
2018-01-26T06:16:46.038Z,1009.03
2018-01-26T06:17:55.730Z,1009.09
2018-01-26T06:19:05.414Z,1009.06
2018-01-26T06:20:15.351Z,1009.04
2018-01-26T06:21:25.360Z,1009
2018-01-26T06:22:35.302Z,1009.01
2018-01-26T06:23:45.249Z,1009.03
2018-01-26T06:24:55.197Z,1009.03
2018-01-26T06:26:04.371Z,1009.04
2018-01-26T06:27:14.064Z,1009.09
2018-01-26T06:28:24.030Z,1009.09
2018-01-26T06:29:33.982Z,1009.09
2018-01-26T06:30:43.917Z,1009.07
2018-01-26T06:31:53.853Z,1009.03
2018-01-26T06:33:03.794Z,1009
2018-01-26T06:34:13.760Z,1009.05
2018-01-26T06:35:23.441Z,1009
2018-01-26T06:36:33.136Z,1009
2018-01-26T06:37:42.814Z,1009.01
2018-01-26T06:38:52.769Z,1009.06
2018-01-26T06:40:02.471Z,1009.01
2018-01-26T06:41:12.416Z,1009.04
2018-01-26T06:42:22.117Z,1009.02
2018-01-26T06:43:32.071Z,1009
2018-01-26T06:44:42.049Z,1008.99
2018-01-26T06:45:52.029Z,1009
2018-01-26T06:47:01.985Z,1009.01
2018-01-26T06:48:11.961Z,1009.02
2018-01-26T06:49:21.665Z,1009.04
2018-01-26T06:50:31.450Z,1009.02
2018-01-26T06:51:41.142Z,1009.06
2018-01-26T06:52:51.095Z,1009.1
2018-01-26T06:54:01.043Z,1009.07
2018-01-26T06:55:10.990Z,1009.08
2018-01-26T06:56:20.935Z,1009.08
2018-01-26T06:57:30.624Z,1009.04
2018-01-26T06:58:40.579Z,1009.07
2018-01-26T06:59:50.278Z,1009.06
2018-01-26T07:01:00.238Z,1009.09
2018-01-26T07:02:09.684Z,1009.05
2018-01-26T07:03:19.631Z,1009.06
2018-01-26T07:04:29.846Z,1009.06
2018-01-26T07:05:39.782Z,1009.07
2018-01-26T07:06:49.716Z,1009.08
2018-01-26T07:07:59.397Z,1009.13
2018-01-26T07:09:09.371Z,1009.09
2018-01-26T07:10:19.061Z,1009.1
2018-01-26T07:11:28.241Z,1009.13
2018-01-26T07:12:38.204Z,1009.16
2018-01-26T07:13:47.904Z,1009.17
2018-01-26T07:14:57.627Z,1009.17
2018-01-26T07:16:07.070Z,1009.22
2018-01-26T07:17:17.073Z,1009.22
2018-01-26T07:18:26.768Z,1009.23
2018-01-26T07:19:36.723Z,1009.24
2018-01-26T07:20:46.409Z,1009.27
2018-01-26T07:21:56.351Z,1009.31
2018-01-26T07:23:06.301Z,1009.34
2018-01-26T07:24:16.238Z,1009.31
2018-01-26T07:25:25.930Z,1009.33
2018-01-26T07:26:35.938Z,1009.32
2018-01-26T07:27:45.371Z,1009.36
2018-01-26T07:28:55.327Z,1009.34
2018-01-26T07:30:05.284Z,1009.37
2018-01-26T07:31:15.250Z,1009.38
2018-01-26T07:32:25.250Z,1009.32
2018-01-26T07:33:35.207Z,1009.35
2018-01-26T07:34:44.892Z,1009.38
2018-01-26T07:35:54.580Z,1009.35
2018-01-26T07:37:04.530Z,1009.4
2018-01-26T07:38:13.966Z,1009.36
2018-01-26T07:39:23.678Z,1009.41
2018-01-26T07:40:32.848Z,1009.42
2018-01-26T07:41:42.794Z,1009.45
2018-01-26T07:42:52.767Z,1009.49
2018-01-26T07:44:02.457Z,1009.47
2018-01-26T07:45:11.932Z,1009.47
2018-01-26T07:46:21.629Z,1009.44
2018-01-26T07:47:31.589Z,1009.42
2018-01-26T07:48:41.530Z,1009.44
2018-01-26T07:49:51.212Z,1009.45
2018-01-26T07:51:00.929Z,1009.52
2018-01-26T07:52:10.876Z,1009.5
2018-01-26T07:53:20.814Z,1009.53
2018-01-26T07:54:30.758Z,1009.55
2018-01-26T07:55:40.460Z,1009.59
2018-01-26T07:56:49.649Z,1009.59
2018-01-26T07:57:59.073Z,1009.63
2018-01-26T07:59:09.054Z,1009.64
2018-01-26T08:00:19.022Z,1009.59
2018-01-26T08:01:28.998Z,1009.6
2018-01-26T08:02:38.988Z,1009.6
2018-01-26T08:03:48.955Z,1009.59
2018-01-26T08:04:58.641Z,1009.64
2018-01-26T08:06:08.593Z,1009.63
2018-01-26T08:07:18.558Z,1009.62
2018-01-26T08:08:28.509Z,1009.62
2018-01-26T08:09:37.955Z,1009.6
2018-01-26T08:10:47.400Z,1009.61
2018-01-26T08:11:57.088Z,1009.57
2018-01-26T08:13:07.068Z,1009.54
2018-01-26T08:14:17.063Z,1009.56
2018-01-26T08:15:27.390Z,1009.55
2018-01-26T08:16:37.333Z,1009.49
2018-01-26T08:17:47.279Z,1009.51
2018-01-26T08:18:57.234Z,1009.49
2018-01-26T08:20:07.247Z,1009.5
2018-01-26T08:21:17.083Z,1009.5
2018-01-26T08:22:26.832Z,1009.59
2018-01-26T08:23:36.641Z,1009.61
2018-01-26T08:24:46.073Z,1009.64
2018-01-26T08:25:56.027Z,1009.65
2018-01-26T08:27:05.979Z,1009.66
2018-01-26T08:28:15.926Z,1009.69
2018-01-26T08:29:25.887Z,1009.73
2018-01-26T08:30:35.832Z,1009.71
2018-01-26T08:31:45.264Z,1009.68
2018-01-26T08:32:55.221Z,1009.67
2018-01-26T08:34:05.204Z,1009.69
2018-01-26T08:35:15.163Z,1009.72
2018-01-26T08:36:24.861Z,1009.73
2018-01-26T08:37:34.823Z,1009.76
2018-01-26T08:38:44.786Z,1009.76
2018-01-26T08:39:54.741Z,1009.73
2018-01-26T08:41:04.692Z,1009.76
2018-01-26T08:42:14.656Z,1009.81
2018-01-26T08:43:24.613Z,1009.78
2018-01-26T08:44:34.563Z,1009.81
2018-01-26T08:45:44.518Z,1009.8
2018-01-26T08:46:54.472Z,1009.8
2018-01-26T08:48:04.416Z,1009.81
2018-01-26T08:49:14.378Z,1009.79
2018-01-26T08:50:24.134Z,1009.8
2018-01-26T08:51:33.896Z,1009.81
2018-01-26T08:52:43.585Z,1009.83
2018-01-26T08:53:53.266Z,1009.84
2018-01-26T08:55:03.204Z,1009.78
2018-01-26T08:56:12.912Z,1009.83
2018-01-26T08:57:22.972Z,1009.82
2018-01-26T08:58:32.435Z,1009.83
2018-01-26T08:59:42.125Z,1009.84
2018-01-26T09:00:52.093Z,1009.86
2018-01-26T09:02:01.801Z,1009.87
2018-01-26T09:03:11.791Z,1009.86
2018-01-26T09:04:21.778Z,1009.84
2018-01-26T09:05:31.741Z,1009.86
2018-01-26T09:06:41.496Z,1009.88
2018-01-26T09:07:51.686Z,1009.93
2018-01-26T09:09:01.127Z,1009.98
2018-01-26T09:10:11.125Z,1009.98
2018-01-26T09:11:21.143Z,1009.97
2018-01-26T09:12:31.097Z,1010.05
2018-01-26T09:13:41.051Z,1010.03
2018-01-26T09:14:50.996Z,1010
2018-01-26T09:16:00.680Z,1010.05
2018-01-26T09:17:10.697Z,1010.06
2018-01-26T09:18:20.709Z,1010.12
2018-01-26T09:19:30.674Z,1010.18
2018-01-26T09:20:40.109Z,1010.19
2018-01-26T09:21:50.066Z,1010.23
2018-01-26T09:22:59.772Z,1010.26
2018-01-26T09:24:09.480Z,1010.27
2018-01-26T09:25:19.441Z,1010.28
2018-01-26T09:26:29.204Z,1010.28
2018-01-26T09:27:38.904Z,1010.3
2018-01-26T09:28:48.609Z,1010.33
2018-01-26T09:29:58.565Z,1010.33
2018-01-26T09:31:08.266Z,1010.37
2018-01-26T09:32:18.337Z,1010.4
2018-01-26T09:33:28.310Z,1010.41
2018-01-26T09:34:38.266Z,1010.38
2018-01-26T09:35:48.275Z,1010.37
2018-01-26T09:36:58.285Z,1010.38
2018-01-26T09:38:08.255Z,1010.34
2018-01-26T09:39:18.225Z,1010.34
2018-01-26T09:40:28.197Z,1010.39
2018-01-26T09:41:38.149Z,1010.37
2018-01-26T09:42:47.904Z,1010.39
2018-01-26T09:43:57.951Z,1010.42
2018-01-26T09:45:07.406Z,1010.44
2018-01-26T09:46:17.379Z,1010.45
2018-01-26T09:47:27.089Z,1010.47
2018-01-26T09:48:37.121Z,1010.48
2018-01-26T09:49:47.132Z,1010.44
2018-01-26T09:50:56.833Z,1010.44
2018-01-26T09:52:06.553Z,1010.47
2018-01-26T09:53:16.263Z,1010.49
2018-01-26T09:54:26.419Z,1010.53
2018-01-26T09:55:36.140Z,1010.52
2018-01-26T09:56:46.092Z,1010.55
2018-01-26T09:57:55.788Z,1010.55
2018-01-26T09:59:05.493Z,1010.51
2018-01-26T10:00:15.493Z,1010.53
2018-01-26T10:01:24.936Z,1010.52
2018-01-26T10:02:34.875Z,1010.55
2018-01-26T10:03:44.831Z,1010.56
2018-01-26T10:04:54.806Z,1010.57
2018-01-26T10:06:04.768Z,1010.6
2018-01-26T10:07:14.810Z,1010.58
2018-01-26T10:08:24.240Z,1010.59
2018-01-26T10:09:33.430Z,1010.58
2018-01-26T10:10:43.406Z,1010.55
2018-01-26T10:11:53.351Z,1010.58
2018-01-26T10:13:03.039Z,1010.6
2018-01-26T10:14:13.035Z,1010.65
2018-01-26T10:15:22.729Z,1010.67
2018-01-26T10:16:32.705Z,1010.74
2018-01-26T10:17:42.711Z,1010.79
2018-01-26T10:18:52.453Z,1010.74
2018-01-26T10:20:02.400Z,1010.75
2018-01-26T10:21:12.364Z,1010.72
2018-01-26T10:22:22.059Z,1010.75
2018-01-26T10:23:32.008Z,1010.67
2018-01-26T10:24:41.443Z,1010.69
2018-01-26T10:25:51.427Z,1010.68
2018-01-26T10:27:01.382Z,1010.72
2018-01-26T10:28:11.381Z,1010.74
2018-01-26T10:29:21.384Z,1010.76
2018-01-26T10:30:31.097Z,1010.82
2018-01-26T10:31:41.076Z,1010.83
2018-01-26T10:32:51.031Z,1010.85
2018-01-26T10:34:01.113Z,1010.91
2018-01-26T10:35:11.068Z,1010.92
2018-01-26T10:36:21.069Z,1010.94
2018-01-26T10:37:30.816Z,1010.93
2018-01-26T10:38:40.515Z,1010.95
2018-01-26T10:39:50.837Z,1010.96
2018-01-26T10:41:00.836Z,1010.94
2018-01-26T10:42:10.784Z,1010.94
2018-01-26T10:43:20.756Z,1010.96
2018-01-26T10:44:30.445Z,1010.96
2018-01-26T10:45:40.445Z,1010.99
2018-01-26T10:46:50.146Z,1010.99
2018-01-26T10:48:00.104Z,1010.98
2018-01-26T10:49:10.067Z,1011.02
2018-01-26T10:50:19.841Z,1010.96
2018-01-26T10:51:29.856Z,1011
2018-01-26T10:52:39.543Z,1011.02
2018-01-26T10:53:49.494Z,1011.06
2018-01-26T10:54:59.225Z,1011.04
2018-01-26T10:56:08.931Z,1011.08
2018-01-26T10:57:18.677Z,1011.08
2018-01-26T10:58:28.363Z,1011.12
2018-01-26T10:59:38.311Z,1011.09
2018-01-26T11:00:48.009Z,1011.14
2018-01-26T11:01:58.006Z,1011.12
2018-01-26T11:03:07.761Z,1011.1
2018-01-26T11:04:17.794Z,1011.07
2018-01-26T11:05:27.753Z,1011.1
2018-01-26T11:06:37.704Z,1011.12
2018-01-26T11:07:47.696Z,1011.12
2018-01-26T11:08:57.695Z,1011.16
2018-01-26T11:10:07.407Z,1011.12
2018-01-26T11:11:17.455Z,1011.17
2018-01-26T11:12:27.200Z,1011.18
2018-01-26T11:13:37.162Z,1011.15
2018-01-26T11:14:46.856Z,1011.19
2018-01-26T11:15:56.824Z,1011.15
2018-01-26T11:17:06.771Z,1011.14
2018-01-26T11:18:16.734Z,1011.17
2018-01-26T11:19:26.701Z,1011.2
2018-01-26T11:20:36.413Z,1011.24
2018-01-26T11:21:46.112Z,1011.22
2018-01-26T11:22:56.078Z,1011.24
2018-01-26T11:24:06.038Z,1011.23
2018-01-26T11:25:16.003Z,1011.24
2018-01-26T11:26:25.966Z,1011.28
2018-01-26T11:27:35.977Z,1011.26
2018-01-26T11:28:45.956Z,1011.26
2018-01-26T11:29:55.647Z,1011.32
2018-01-26T11:31:05.608Z,1011.28
2018-01-26T11:32:15.536Z,1011.27
2018-01-26T11:33:25.603Z,1011.25
2018-01-26T11:34:35.566Z,1011.25
2018-01-26T11:35:45.285Z,1011.26
2018-01-26T11:36:55.246Z,1011.27
2018-01-26T11:38:05.218Z,1011.28
2018-01-26T11:39:15.173Z,1011.33
2018-01-26T11:40:24.872Z,1011.36
2018-01-26T11:41:34.837Z,1011.31
2018-01-26T11:42:44.811Z,1011.34
2018-01-26T11:43:54.768Z,1011.33
2018-01-26T11:45:04.727Z,1011.33
2018-01-26T11:46:14.445Z,1011.38
2018-01-26T11:47:24.415Z,1011.39
2018-01-26T11:48:34.354Z,1011.34
2018-01-26T11:49:44.047Z,1011.34
2018-01-26T11:50:54.069Z,1011.33
2018-01-26T11:52:04.022Z,1011.35
2018-01-26T11:53:13.992Z,1011.37
2018-01-26T11:54:23.954Z,1011.34
2018-01-26T11:55:33.648Z,1011.34
2018-01-26T11:56:43.344Z,1011.34
2018-01-26T11:57:53.433Z,1011.31
2018-01-26T11:59:03.402Z,1011.34
2018-01-26T12:00:13.376Z,1011.31
2018-01-26T12:01:23.351Z,1011.4
2018-01-26T12:02:33.298Z,1011.38
2018-01-26T12:03:43.018Z,1011.4
2018-01-26T12:04:52.730Z,1011.44
2018-01-26T12:06:02.754Z,1011.49
2018-01-26T12:07:12.460Z,1011.47
2018-01-26T12:08:22.160Z,1011.46
2018-01-26T12:09:31.844Z,1011.48
2018-01-26T12:10:41.806Z,1011.53
2018-01-26T12:11:51.756Z,1011.54
2018-01-26T12:13:01.720Z,1011.53
2018-01-26T12:14:11.689Z,1011.56
2018-01-26T12:15:21.681Z,1011.63
2018-01-26T12:16:31.639Z,1011.63
2018-01-26T12:17:41.336Z,1011.63
2018-01-26T12:18:51.026Z,1011.65
2018-01-26T12:20:01.026Z,1011.64
2018-01-26T12:21:10.973Z,1011.63
2018-01-26T12:22:20.697Z,1011.63
2018-01-26T12:23:30.661Z,1011.64
2018-01-26T12:24:40.629Z,1011.64
2018-01-26T12:25:50.336Z,1011.66
2018-01-26T12:26:59.779Z,1011.7
2018-01-26T12:28:09.792Z,1011.68
2018-01-26T12:29:19.758Z,1011.69
2018-01-26T12:30:29.746Z,1011.71
2018-01-26T12:31:39.711Z,1011.72
2018-01-26T12:32:49.657Z,1011.67
2018-01-26T12:33:59.361Z,1011.68
2018-01-26T12:35:09.676Z,1011.74
2018-01-26T12:36:19.406Z,1011.69
2018-01-26T12:37:29.351Z,1011.68
2018-01-26T12:38:39.300Z,1011.72
2018-01-26T12:39:49.038Z,1011.7
2018-01-26T12:40:59.073Z,1011.72
2018-01-26T12:42:09.041Z,1011.77
2018-01-26T12:43:19.044Z,1011.81
2018-01-26T12:44:29.029Z,1011.78
2018-01-26T12:45:39.011Z,1011.82
2018-01-26T12:46:48.722Z,1011.86
2018-01-26T12:47:58.462Z,1011.82
2018-01-26T12:49:08.169Z,1011.88
2018-01-26T12:50:18.163Z,1011.89
2018-01-26T12:51:28.421Z,1011.92
2018-01-26T12:52:38.308Z,1011.94
2018-01-26T12:53:48.300Z,1012.02
2018-01-26T12:54:58.055Z,1012.03
2018-01-26T12:56:07.789Z,1012.02
2018-01-26T12:57:17.525Z,1012.07
2018-01-26T12:58:27.776Z,1012.04
2018-01-26T12:59:37.780Z,1012.08
2018-01-26T13:00:47.789Z,1012.09
2018-01-26T13:01:57.701Z,1012.11
2018-01-26T13:03:07.417Z,1012.12
2018-01-26T13:04:17.440Z,1012.12
2018-01-26T13:05:27.412Z,1012.12
2018-01-26T13:06:37.408Z,1012.15
2018-01-26T13:07:47.451Z,1012.18
2018-01-26T13:08:57.167Z,1012.16
2018-01-26T13:10:07.195Z,1012.16
2018-01-26T13:11:17.175Z,1012.2
2018-01-26T13:12:27.150Z,1012.18
2018-01-26T13:13:37.115Z,1012.22
2018-01-26T13:14:47.096Z,1012.23
2018-01-26T13:15:56.825Z,1012.24
2018-01-26T13:17:06.773Z,1012.22
2018-01-26T13:18:16.737Z,1012.23
2018-01-26T13:19:26.733Z,1012.21
2018-01-26T13:20:36.953Z,1012.23
2018-01-26T13:21:46.959Z,1012.17
2018-01-26T13:22:56.943Z,1012.19
2018-01-26T13:24:06.892Z,1012.14
2018-01-26T13:25:16.627Z,1012.15
2018-01-26T13:26:26.746Z,1012.15
2018-01-26T13:27:36.440Z,1012.13
2018-01-26T13:28:46.454Z,1012.12
2018-01-26T13:29:56.146Z,1012.17
2018-01-26T13:31:06.131Z,1012.13
2018-01-26T13:32:16.096Z,1012.18
2018-01-26T13:33:25.286Z,1012.2
2018-01-26T13:34:35.254Z,1012.22
2018-01-26T13:35:44.959Z,1012.3
2018-01-26T13:36:54.452Z,1012.34
2018-01-26T13:38:04.436Z,1012.38
2018-01-26T13:39:13.926Z,1012.39
2018-01-26T13:40:23.870Z,1012.43
2018-01-26T13:41:33.866Z,1012.45
2018-01-26T13:42:43.824Z,1012.42
2018-01-26T13:43:53.535Z,1012.47
2018-01-26T13:45:03.531Z,1012.41
2018-01-26T13:46:13.502Z,1012.45
2018-01-26T13:47:23.447Z,1012.46
2018-01-26T13:48:32.899Z,1012.43
2018-01-26T13:49:42.852Z,1012.46
2018-01-26T13:50:52.828Z,1012.51
2018-01-26T13:52:02.795Z,1012.54
2018-01-26T13:53:12.508Z,1012.62
2018-01-26T13:54:22.453Z,1012.59
2018-01-26T13:55:32.409Z,1012.67
2018-01-26T13:56:42.400Z,1012.66
2018-01-26T13:57:52.377Z,1012.63
2018-01-26T13:59:02.082Z,1012.67
2018-01-26T14:00:12.047Z,1012.74
2018-01-26T14:01:22.114Z,1012.74
2018-01-26T14:02:32.069Z,1012.77
2018-01-26T14:03:42.032Z,1012.79
2018-01-26T14:04:51.206Z,1012.83
2018-01-26T14:06:01.214Z,1012.9
2018-01-26T14:07:10.913Z,1012.93
2018-01-26T14:08:20.868Z,1012.96